sensor_id;sensor_type;location;lat;lon;timestamp;P1;durP1;ratioP1;P2;durP2;ratioP2
37459;SDS011;23318;50.966;5.284;2022-12-07T00:01:17;21.90;;;11.00;;
37459;SDS011;23318;50.966;5.284;2022-12-07T00:03:43;18.05;;;10.95;;
37459;SDS011;23318;50.966;5.284;2022-12-07T00:06:11;19.15;;;11.95;;
37459;SDS011;23318;50.966;5.284;2022-12-07T00:08:38;20.52;;;12.25;;
37459;SDS011;23318;50.966;5.284;2022-12-07T00:11:08;19.98;;;12.60;;
37459;SDS011;23318;50.966;5.284;2022-12-07T00:13:39;20.05;;;11.73;;
37459;SDS011;23318;50.966;5.284;2022-12-07T00:16:07;18.45;;;11.05;;
37459;SDS011;23318;50.966;5.284;2022-12-07T00:18:33;23.08;;;11.38;;
37459;SDS011;23318;50.966;5.284;2022-12-07T00:21:03;17.52;;;11.50;;
37459;SDS011;23318;50.966;5.284;2022-12-07T00:23:30;18.90;;;11.05;;
37459;SDS011;23318;50.966;5.284;2022-12-07T00:26:02;17.15;;;11.32;;
37459;SDS011;23318;50.966;5.284;2022-12-07T00:28:35;21.52;;;12.35;;
37459;SDS011;23318;50.966;5.284;2022-12-07T00:31:04;18.88;;;12.18;;
37459;SDS011;23318;50.966;5.284;2022-12-07T00:33:37;18.38;;;12.43;;
37459;SDS011;23318;50.966;5.284;2022-12-07T00:36:05;19.85;;;11.63;;
37459;SDS011;23318;50.966;5.284;2022-12-07T00:38:34;17.40;;;11.88;;
37459;SDS011;23318;50.966;5.284;2022-12-07T00:41:02;20.40;;;12.60;;
37459;SDS011;23318;50.966;5.284;2022-12-07T00:43:29;23.08;;;12.07;;
37459;SDS011;23318;50.966;5.284;2022-12-07T00:45:55;18.63;;;11.95;;
37459;SDS011;23318;50.966;5.284;2022-12-07T00:48:21;19.50;;;11.88;;
37459;SDS011;23318;50.966;5.284;2022-12-07T00:50:48;20.65;;;12.77;;
37459;SDS011;23318;50.966;5.284;2022-12-07T00:53:14;19.10;;;12.25;;
37459;SDS011;23318;50.966;5.284;2022-12-07T00:55:40;20.10;;;11.18;;
37459;SDS011;23318;50.966;5.284;2022-12-07T00:58:06;19.38;;;11.50;;
37459;SDS011;23318;50.966;5.284;2022-12-07T01:00:32;16.42;;;11.50;;
37459;SDS011;23318;50.966;5.284;2022-12-07T01:02:58;18.25;;;11.32;;
37459;SDS011;23318;50.966;5.284;2022-12-07T01:05:24;16.60;;;11.00;;
37459;SDS011;23318;50.966;5.284;2022-12-07T01:07:49;16.42;;;11.43;;
37459;SDS011;23318;50.966;5.284;2022-12-07T01:10:15;17.40;;;11.70;;
37459;SDS011;23318;50.966;5.284;2022-12-07T01:12:41;17.27;;;11.32;;
37459;SDS011;23318;50.966;5.284;2022-12-07T01:15:07;21.48;;;11.25;;
37459;SDS011;23318;50.966;5.284;2022-12-07T01:17:33;20.25;;;12.80;;
37459;SDS011;23318;50.966;5.284;2022-12-07T01:19:59;15.77;;;11.23;;
37459;SDS011;23318;50.966;5.284;2022-12-07T01:22:25;18.80;;;10.85;;
37459;SDS011;23318;50.966;5.284;2022-12-07T01:24:51;18.13;;;11.05;;
37459;SDS011;23318;50.966;5.284;2022-12-07T01:27:17;19.08;;;10.70;;
37459;SDS011;23318;50.966;5.284;2022-12-07T01:29:42;16.05;;;10.95;;
37459;SDS011;23318;50.966;5.284;2022-12-07T01:32:08;17.08;;;12.02;;
37459;SDS011;23318;50.966;5.284;2022-12-07T01:34:35;18.25;;;11.93;;
37459;SDS011;23318;50.966;5.284;2022-12-07T01:37:00;23.52;;;11.88;;
37459;SDS011;23318;50.966;5.284;2022-12-07T01:39:26;20.70;;;11.95;;
37459;SDS011;23318;50.966;5.284;2022-12-07T01:41:52;15.90;;;11.40;;
37459;SDS011;23318;50.966;5.284;2022-12-07T01:46:51;16.88;;;10.75;;
37459;SDS011;23318;50.966;5.284;2022-12-07T01:52:01;17.77;;;10.88;;
37459;SDS011;23318;50.966;5.284;2022-12-07T01:54:47;18.70;;;11.23;;
37459;SDS011;23318;50.966;5.284;2022-12-07T01:57:16;21.50;;;11.63;;
37459;SDS011;23318;50.966;5.284;2022-12-07T01:59:43;18.65;;;11.90;;
37459;SDS011;23318;50.966;5.284;2022-12-07T02:02:18;22.23;;;11.32;;
37459;SDS011;23318;50.966;5.284;2022-12-07T02:05:05;15.98;;;11.00;;
37459;SDS011;23318;50.966;5.284;2022-12-07T02:07:32;14.15;;;10.68;;
37459;SDS011;23318;50.966;5.284;2022-12-07T02:12:48;24.67;;;11.75;;
37459;SDS011;23318;50.966;5.284;2022-12-07T02:15:44;17.85;;;11.18;;
37459;SDS011;23318;50.966;5.284;2022-12-07T02:37:18;17.33;;;11.27;;
37459;SDS011;23318;50.966;5.284;2022-12-07T02:40:02;16.63;;;11.75;;
37459;SDS011;23318;50.966;5.284;2022-12-07T02:42:38;20.20;;;11.40;;
37459;SDS011;23318;50.966;5.284;2022-12-07T02:45:09;17.73;;;11.68;;
37459;SDS011;23318;50.966;5.284;2022-12-07T02:47:38;20.75;;;11.88;;
37459;SDS011;23318;50.966;5.284;2022-12-07T02:50:06;22.52;;;11.70;;
37459;SDS011;23318;50.966;5.284;2022-12-07T02:52:32;23.02;;;11.70;;
37459;SDS011;23318;50.966;5.284;2022-12-07T02:54:58;22.45;;;13.00;;
37459;SDS011;23318;50.966;5.284;2022-12-07T02:57:41;20.63;;;13.07;;
37459;SDS011;23318;50.966;5.284;2022-12-07T03:00:19;20.88;;;13.40;;
37459;SDS011;23318;50.966;5.284;2022-12-07T03:11:08;25.23;;;14.68;;
37459;SDS011;23318;50.966;5.284;2022-12-07T03:16:19;21.88;;;14.40;;
37459;SDS011;23318;50.966;5.284;2022-12-07T03:18:52;29.98;;;15.27;;
37459;SDS011;23318;50.966;5.284;2022-12-07T03:21:23;23.90;;;14.80;;
37459;SDS011;23318;50.966;5.284;2022-12-07T03:23:58;23.85;;;13.93;;
37459;SDS011;23318;50.966;5.284;2022-12-07T03:26:31;26.13;;;15.60;;
37459;SDS011;23318;50.966;5.284;2022-12-07T03:29:01;24.38;;;14.82;;
37459;SDS011;23318;50.966;5.284;2022-12-07T03:31:41;23.98;;;14.73;;
37459;SDS011;23318;50.966;5.284;2022-12-07T03:36:51;26.25;;;15.57;;
37459;SDS011;23318;50.966;5.284;2022-12-07T03:39:24;22.20;;;14.15;;
37459;SDS011;23318;50.966;5.284;2022-12-07T03:42:01;22.02;;;15.23;;
37459;SDS011;23318;50.966;5.284;2022-12-07T03:44:30;23.00;;;14.90;;
37459;SDS011;23318;50.966;5.284;2022-12-07T03:49:28;21.95;;;14.60;;
37459;SDS011;23318;50.966;5.284;2022-12-07T03:55:16;21.05;;;14.50;;
37459;SDS011;23318;50.966;5.284;2022-12-07T03:57:33;27.67;;;14.68;;
37459;SDS011;23318;50.966;5.284;2022-12-07T04:00:01;23.48;;;15.65;;
37459;SDS011;23318;50.966;5.284;2022-12-07T04:02:29;25.17;;;14.43;;
37459;SDS011;23318;50.966;5.284;2022-12-07T04:04:55;26.63;;;14.57;;
37459;SDS011;23318;50.966;5.284;2022-12-07T04:07:21;22.05;;;14.48;;
37459;SDS011;23318;50.966;5.284;2022-12-07T04:09:47;26.95;;;14.35;;
37459;SDS011;23318;50.966;5.284;2022-12-07T04:12:13;22.25;;;14.70;;
37459;SDS011;23318;50.966;5.284;2022-12-07T04:14:38;27.63;;;14.48;;
37459;SDS011;23318;50.966;5.284;2022-12-07T04:17:04;23.10;;;15.02;;
37459;SDS011;23318;50.966;5.284;2022-12-07T04:19:31;24.92;;;14.20;;
37459;SDS011;23318;50.966;5.284;2022-12-07T04:21:58;24.23;;;13.80;;
37459;SDS011;23318;50.966;5.284;2022-12-07T04:24:25;24.58;;;14.07;;
37459;SDS011;23318;50.966;5.284;2022-12-07T04:26:51;19.55;;;13.55;;
37459;SDS011;23318;50.966;5.284;2022-12-07T04:29:17;24.38;;;14.27;;
37459;SDS011;23318;50.966;5.284;2022-12-07T04:31:43;21.92;;;14.07;;
37459;SDS011;23318;50.966;5.284;2022-12-07T04:34:10;20.00;;;12.88;;
37459;SDS011;23318;50.966;5.284;2022-12-07T04:36:36;20.70;;;14.32;;
37459;SDS011;23318;50.966;5.284;2022-12-07T04:39:03;20.95;;;13.88;;
37459;SDS011;23318;50.966;5.284;2022-12-07T04:41:29;20.08;;;13.73;;
37459;SDS011;23318;50.966;5.284;2022-12-07T04:44:02;24.13;;;14.40;;
37459;SDS011;23318;50.966;5.284;2022-12-07T04:46:29;25.02;;;14.25;;
37459;SDS011;23318;50.966;5.284;2022-12-07T04:48:56;26.98;;;14.82;;
37459;SDS011;23318;50.966;5.284;2022-12-07T04:51:24;25.23;;;14.70;;
37459;SDS011;23318;50.966;5.284;2022-12-07T04:53:51;26.73;;;13.85;;
37459;SDS011;23318;50.966;5.284;2022-12-07T04:56:18;26.50;;;15.27;;
37459;SDS011;23318;50.966;5.284;2022-12-07T04:58:44;23.45;;;15.38;;
37459;SDS011;23318;50.966;5.284;2022-12-07T05:01:11;22.70;;;14.98;;
37459;SDS011;23318;50.966;5.284;2022-12-07T05:03:37;26.85;;;15.38;;
37459;SDS011;23318;50.966;5.284;2022-12-07T05:06:03;25.52;;;15.82;;
37459;SDS011;23318;50.966;5.284;2022-12-07T05:08:29;23.90;;;15.27;;
37459;SDS011;23318;50.966;5.284;2022-12-07T05:10:55;21.52;;;15.27;;
37459;SDS011;23318;50.966;5.284;2022-12-07T05:13:21;25.30;;;14.88;;
37459;SDS011;23318;50.966;5.284;2022-12-07T05:15:47;25.88;;;15.35;;
37459;SDS011;23318;50.966;5.284;2022-12-07T05:18:13;25.75;;;14.35;;
37459;SDS011;23318;50.966;5.284;2022-12-07T05:20:39;27.30;;;14.82;;
37459;SDS011;23318;50.966;5.284;2022-12-07T05:23:05;26.15;;;14.90;;
37459;SDS011;23318;50.966;5.284;2022-12-07T05:25:31;26.95;;;15.00;;
37459;SDS011;23318;50.966;5.284;2022-12-07T05:27:57;20.77;;;15.13;;
37459;SDS011;23318;50.966;5.284;2022-12-07T05:30:23;23.02;;;14.75;;
37459;SDS011;23318;50.966;5.284;2022-12-07T05:32:50;29.38;;;15.20;;
37459;SDS011;23318;50.966;5.284;2022-12-07T05:35:15;25.50;;;15.10;;
37459;SDS011;23318;50.966;5.284;2022-12-07T05:37:41;29.77;;;13.63;;
37459;SDS011;23318;50.966;5.284;2022-12-07T05:40:07;19.95;;;12.73;;
37459;SDS011;23318;50.966;5.284;2022-12-07T05:42:33;18.17;;;13.45;;
37459;SDS011;23318;50.966;5.284;2022-12-07T05:44:59;27.15;;;14.13;;
37459;SDS011;23318;50.966;5.284;2022-12-07T05:47:25;28.75;;;14.40;;
37459;SDS011;23318;50.966;5.284;2022-12-07T05:49:50;25.63;;;14.48;;
37459;SDS011;23318;50.966;5.284;2022-12-07T05:52:16;20.27;;;13.43;;
37459;SDS011;23318;50.966;5.284;2022-12-07T05:54:42;25.75;;;14.38;;
37459;SDS011;23318;50.966;5.284;2022-12-07T05:57:07;31.90;;;14.77;;
37459;SDS011;23318;50.966;5.284;2022-12-07T05:59:33;26.08;;;15.15;;
37459;SDS011;23318;50.966;5.284;2022-12-07T06:02:00;22.40;;;14.30;;
37459;SDS011;23318;50.966;5.284;2022-12-07T06:04:32;21.65;;;15.25;;
37459;SDS011;23318;50.966;5.284;2022-12-07T06:07:00;19.25;;;13.75;;
37459;SDS011;23318;50.966;5.284;2022-12-07T06:09:26;22.23;;;14.15;;
37459;SDS011;23318;50.966;5.284;2022-12-07T06:11:53;24.90;;;13.40;;
37459;SDS011;23318;50.966;5.284;2022-12-07T06:14:37;21.50;;;13.95;;
37459;SDS011;23318;50.966;5.284;2022-12-07T06:17:04;23.10;;;14.48;;
37459;SDS011;23318;50.966;5.284;2022-12-07T06:19:29;25.63;;;13.27;;
37459;SDS011;23318;50.966;5.284;2022-12-07T06:21:56;19.60;;;14.30;;
37459;SDS011;23318;50.966;5.284;2022-12-07T06:24:21;23.02;;;13.68;;
37459;SDS011;23318;50.966;5.284;2022-12-07T06:26:48;21.65;;;13.20;;
37459;SDS011;23318;50.966;5.284;2022-12-07T06:29:14;24.40;;;13.23;;
37459;SDS011;23318;50.966;5.284;2022-12-07T06:31:40;23.85;;;14.27;;
37459;SDS011;23318;50.966;5.284;2022-12-07T06:34:08;19.92;;;12.93;;
37459;SDS011;23318;50.966;5.284;2022-12-07T06:36:36;18.10;;;13.45;;
37459;SDS011;23318;50.966;5.284;2022-12-07T06:39:03;21.45;;;13.15;;
37459;SDS011;23318;50.966;5.284;2022-12-07T06:41:30;24.33;;;13.48;;
37459;SDS011;23318;50.966;5.284;2022-12-07T06:43:56;25.45;;;15.18;;
37459;SDS011;23318;50.966;5.284;2022-12-07T06:46:21;28.40;;;15.93;;
37459;SDS011;23318;50.966;5.284;2022-12-07T06:48:48;28.20;;;16.42;;
37459;SDS011;23318;50.966;5.284;2022-12-07T06:51:13;30.10;;;15.52;;
37459;SDS011;23318;50.966;5.284;2022-12-07T06:53:39;23.25;;;15.80;;
37459;SDS011;23318;50.966;5.284;2022-12-07T06:56:05;28.73;;;17.63;;
37459;SDS011;23318;50.966;5.284;2022-12-07T06:58:30;24.02;;;17.15;;
37459;SDS011;23318;50.966;5.284;2022-12-07T07:00:56;23.45;;;15.77;;
37459;SDS011;23318;50.966;5.284;2022-12-07T07:03:22;24.50;;;14.70;;
37459;SDS011;23318;50.966;5.284;2022-12-07T07:05:48;20.83;;;14.57;;
37459;SDS011;23318;50.966;5.284;2022-12-07T07:08:13;22.75;;;14.05;;
37459;SDS011;23318;50.966;5.284;2022-12-07T07:10:39;22.83;;;15.15;;
37459;SDS011;23318;50.966;5.284;2022-12-07T07:13:05;28.10;;;18.25;;
37459;SDS011;23318;50.966;5.284;2022-12-07T07:15:31;34.92;;;20.90;;
37459;SDS011;23318;50.966;5.284;2022-12-07T07:17:57;41.08;;;23.00;;
37459;SDS011;23318;50.966;5.284;2022-12-07T07:20:23;49.58;;;26.02;;
37459;SDS011;23318;50.966;5.284;2022-12-07T07:22:49;45.25;;;26.30;;
37459;SDS011;23318;50.966;5.284;2022-12-07T07:25:14;41.35;;;24.33;;
37459;SDS011;23318;50.966;5.284;2022-12-07T07:27:40;43.45;;;24.80;;
37459;SDS011;23318;50.966;5.284;2022-12-07T07:30:07;72.50;;;27.92;;
37459;SDS011;23318;50.966;5.284;2022-12-07T07:32:33;75.00;;;27.33;;
37459;SDS011;23318;50.966;5.284;2022-12-07T07:34:59;53.80;;;26.05;;
37459;SDS011;23318;50.966;5.284;2022-12-07T07:37:25;119.93;;;34.03;;
37459;SDS011;23318;50.966;5.284;2022-12-07T07:39:51;62.88;;;29.50;;
37459;SDS011;23318;50.966;5.284;2022-12-07T07:42:16;40.90;;;27.10;;
37459;SDS011;23318;50.966;5.284;2022-12-07T07:44:42;63.35;;;28.40;;
37459;SDS011;23318;50.966;5.284;2022-12-07T07:47:08;87.00;;;28.98;;
37459;SDS011;23318;50.966;5.284;2022-12-07T07:49:33;77.40;;;29.98;;
37459;SDS011;23318;50.966;5.284;2022-12-07T07:51:59;135.85;;;32.30;;
37459;SDS011;23318;50.966;5.284;2022-12-07T07:54:25;108.47;;;31.75;;
37459;SDS011;23318;50.966;5.284;2022-12-07T07:56:51;67.57;;;27.80;;
37459;SDS011;23318;50.966;5.284;2022-12-07T07:59:17;127.43;;;30.05;;
37459;SDS011;23318;50.966;5.284;2022-12-07T08:01:43;367.38;;;49.80;;
37459;SDS011;23318;50.966;5.284;2022-12-07T08:04:08;433.15;;;54.28;;
37459;SDS011;23318;50.966;5.284;2022-12-07T08:06:34;151.25;;;29.23;;
37459;SDS011;23318;50.966;5.284;2022-12-07T08:09:00;163.55;;;33.70;;
37459;SDS011;23318;50.966;5.284;2022-12-07T08:11:26;111.63;;;30.27;;
37459;SDS011;23318;50.966;5.284;2022-12-07T08:13:52;76.45;;;30.98;;
37459;SDS011;23318;50.966;5.284;2022-12-07T08:16:17;48.63;;;32.50;;
37459;SDS011;23318;50.966;5.284;2022-12-07T08:18:43;46.72;;;30.38;;
37459;SDS011;23318;50.966;5.284;2022-12-07T08:21:09;76.75;;;43.95;;
37459;SDS011;23318;50.966;5.284;2022-12-07T08:23:37;52.22;;;34.95;;
37459;SDS011;23318;50.966;5.284;2022-12-07T08:26:03;66.65;;;39.78;;
37459;SDS011;23318;50.966;5.284;2022-12-07T08:28:30;73.40;;;39.17;;
37459;SDS011;23318;50.966;5.284;2022-12-07T08:31:00;59.60;;;36.42;;
37459;SDS011;23318;50.966;5.284;2022-12-07T08:33:27;64.40;;;38.03;;
37459;SDS011;23318;50.966;5.284;2022-12-07T08:35:53;65.25;;;36.88;;
37459;SDS011;23318;50.966;5.284;2022-12-07T08:38:19;66.30;;;35.35;;
37459;SDS011;23318;50.966;5.284;2022-12-07T08:40:45;64.18;;;34.42;;
37459;SDS011;23318;50.966;5.284;2022-12-07T08:43:18;65.55;;;32.05;;
37459;SDS011;23318;50.966;5.284;2022-12-07T08:45:43;53.80;;;29.73;;
37459;SDS011;23318;50.966;5.284;2022-12-07T08:48:10;57.92;;;31.88;;
37459;SDS011;23318;50.966;5.284;2022-12-07T08:50:38;64.47;;;33.17;;
37459;SDS011;23318;50.966;5.284;2022-12-07T08:53:04;55.78;;;31.38;;
37459;SDS011;23318;50.966;5.284;2022-12-07T08:55:31;47.47;;;30.27;;
37459;SDS011;23318;50.966;5.284;2022-12-07T08:57:58;51.03;;;32.00;;
37459;SDS011;23318;50.966;5.284;2022-12-07T09:00:25;50.45;;;32.90;;
37459;SDS011;23318;50.966;5.284;2022-12-07T09:02:51;64.90;;;33.15;;
37459;SDS011;23318;50.966;5.284;2022-12-07T09:05:18;49.17;;;29.00;;
37459;SDS011;23318;50.966;5.284;2022-12-07T09:07:44;47.65;;;26.58;;
37459;SDS011;23318;50.966;5.284;2022-12-07T09:10:13;49.95;;;27.08;;
37459;SDS011;23318;50.966;5.284;2022-12-07T09:12:39;47.22;;;24.73;;
37459;SDS011;23318;50.966;5.284;2022-12-07T09:15:05;40.45;;;23.85;;
37459;SDS011;23318;50.966;5.284;2022-12-07T09:17:32;44.15;;;25.33;;
37459;SDS011;23318;50.966;5.284;2022-12-07T09:19:58;48.25;;;23.42;;
37459;SDS011;23318;50.966;5.284;2022-12-07T09:22:27;37.97;;;21.80;;
37459;SDS011;23318;50.966;5.284;2022-12-07T09:24:54;38.75;;;22.17;;
37459;SDS011;23318;50.966;5.284;2022-12-07T09:27:19;39.05;;;20.42;;
37459;SDS011;23318;50.966;5.284;2022-12-07T09:29:45;34.35;;;19.40;;
37459;SDS011;23318;50.966;5.284;2022-12-07T09:32:11;31.50;;;17.23;;
37459;SDS011;23318;50.966;5.284;2022-12-07T09:34:36;27.20;;;16.63;;
37459;SDS011;23318;50.966;5.284;2022-12-07T09:37:02;27.95;;;16.85;;
37459;SDS011;23318;50.966;5.284;2022-12-07T09:39:28;32.50;;;17.17;;
37459;SDS011;23318;50.966;5.284;2022-12-07T09:41:54;34.65;;;19.25;;
37459;SDS011;23318;50.966;5.284;2022-12-07T09:44:23;30.77;;;18.75;;
37459;SDS011;23318;50.966;5.284;2022-12-07T09:46:50;24.65;;;15.85;;
37459;SDS011;23318;50.966;5.284;2022-12-07T09:49:18;28.17;;;16.30;;
37459;SDS011;23318;50.966;5.284;2022-12-07T09:51:46;34.38;;;16.95;;
37459;SDS011;23318;50.966;5.284;2022-12-07T09:54:13;24.58;;;14.30;;
37459;SDS011;23318;50.966;5.284;2022-12-07T09:56:41;31.15;;;15.63;;
37459;SDS011;23318;50.966;5.284;2022-12-07T09:59:13;26.67;;;16.42;;
37459;SDS011;23318;50.966;5.284;2022-12-07T10:01:42;28.23;;;14.73;;
37459;SDS011;23318;50.966;5.284;2022-12-07T10:06:34;18.85;;;11.88;;
37459;SDS011;23318;50.966;5.284;2022-12-07T10:09:00;13.88;;;8.18;;
37459;SDS011;23318;50.966;5.284;2022-12-07T10:11:26;16.15;;;7.80;;
37459;SDS011;23318;50.966;5.284;2022-12-07T10:13:52;17.02;;;7.15;;
37459;SDS011;23318;50.966;5.284;2022-12-07T10:18:48;13.88;;;7.03;;
37459;SDS011;23318;50.966;5.284;2022-12-07T10:21:15;14.77;;;7.18;;
37459;SDS011;23318;50.966;5.284;2022-12-07T10:24:00;12.50;;;7.70;;
37459;SDS011;23318;50.966;5.284;2022-12-07T10:27:03;16.08;;;6.93;;
37459;SDS011;23318;50.966;5.284;2022-12-07T10:29:30;20.65;;;7.80;;
37459;SDS011;23318;50.966;5.284;2022-12-07T10:32:03;14.18;;;7.70;;
37459;SDS011;23318;50.966;5.284;2022-12-07T10:34:29;17.95;;;8.23;;
37459;SDS011;23318;50.966;5.284;2022-12-07T10:37:14;18.58;;;9.90;;
37459;SDS011;23318;50.966;5.284;2022-12-07T10:39:46;22.33;;;8.40;;
37459;SDS011;23318;50.966;5.284;2022-12-07T10:42:26;15.70;;;7.63;;
37459;SDS011;23318;50.966;5.284;2022-12-07T10:55:41;16.13;;;7.60;;
37459;SDS011;23318;50.966;5.284;2022-12-07T11:03:55;16.30;;;7.15;;
37459;SDS011;23318;50.966;5.284;2022-12-07T11:06:39;14.35;;;6.88;;
37459;SDS011;23318;50.966;5.284;2022-12-07T11:12:16;17.15;;;7.47;;
37459;SDS011;23318;50.966;5.284;2022-12-07T11:14:54;14.52;;;6.75;;
37459;SDS011;23318;50.966;5.284;2022-12-07T11:23:02;14.05;;;6.50;;
37459;SDS011;23318;50.966;5.284;2022-12-07T11:25:35;14.43;;;5.97;;
37459;SDS011;23318;50.966;5.284;2022-12-07T11:28:31;17.13;;;6.28;;
37459;SDS011;23318;50.966;5.284;2022-12-07T11:34:08;10.10;;;5.38;;
37459;SDS011;23318;50.966;5.284;2022-12-07T11:36:51;7.82;;;5.00;;
37459;SDS011;23318;50.966;5.284;2022-12-07T11:42:02;16.02;;;5.38;;
37459;SDS011;23318;50.966;5.284;2022-12-07T11:50:16;12.18;;;4.78;;
37459;SDS011;23318;50.966;5.284;2022-12-07T11:53:04;13.57;;;4.50;;
37459;SDS011;23318;50.966;5.284;2022-12-07T11:55:47;13.70;;;5.47;;
37459;SDS011;23318;50.966;5.284;2022-12-07T12:06:24;17.55;;;4.68;;
37459;SDS011;23318;50.966;5.284;2022-12-07T12:20:32;9.60;;;4.40;;
37459;SDS011;23318;50.966;5.284;2022-12-07T12:25:45;12.27;;;4.82;;
37459;SDS011;23318;50.966;5.284;2022-12-07T12:33:56;10.52;;;3.83;;
37459;SDS011;23318;50.966;5.284;2022-12-07T12:46:52;7.30;;;3.03;;
37459;SDS011;23318;50.966;5.284;2022-12-07T12:51:54;8.65;;;3.75;;
37459;SDS011;23318;50.966;5.284;2022-12-07T12:54:23;10.50;;;2.97;;
37459;SDS011;23318;50.966;5.284;2022-12-07T13:01:55;7.10;;;2.92;;
37459;SDS011;23318;50.966;5.284;2022-12-07T13:04:49;8.60;;;2.97;;
37459;SDS011;23318;50.966;5.284;2022-12-07T13:18:00;14.02;;;3.00;;
37459;SDS011;23318;50.966;5.284;2022-12-07T13:20:43;5.28;;;2.92;;
37459;SDS011;23318;50.966;5.284;2022-12-07T13:23:13;12.63;;;3.33;;
37459;SDS011;23318;50.966;5.284;2022-12-07T13:25:54;9.75;;;3.17;;
37459;SDS011;23318;50.966;5.284;2022-12-07T13:33:50;8.93;;;3.42;;
37459;SDS011;23318;50.966;5.284;2022-12-07T13:36:26;7.50;;;2.83;;
37459;SDS011;23318;50.966;5.284;2022-12-07T13:38:55;8.55;;;2.53;;
37459;SDS011;23318;50.966;5.284;2022-12-07T13:41:24;9.20;;;3.08;;
37459;SDS011;23318;50.966;5.284;2022-12-07T13:43:59;9.48;;;2.80;;
37459;SDS011;23318;50.966;5.284;2022-12-07T13:46:35;3.90;;;2.05;;
37459;SDS011;23318;50.966;5.284;2022-12-07T13:49:15;7.22;;;2.58;;
37459;SDS011;23318;50.966;5.284;2022-12-07T13:51:43;6.07;;;2.78;;
37459;SDS011;23318;50.966;5.284;2022-12-07T13:54:10;9.13;;;2.10;;
37459;SDS011;23318;50.966;5.284;2022-12-07T13:56:37;6.57;;;2.28;;
37459;SDS011;23318;50.966;5.284;2022-12-07T13:59:23;8.25;;;2.50;;
37459;SDS011;23318;50.966;5.284;2022-12-07T14:01:50;6.65;;;2.42;;
37459;SDS011;23318;50.966;5.284;2022-12-07T14:07:00;6.68;;;2.88;;
37459;SDS011;23318;50.966;5.284;2022-12-07T14:09:52;9.98;;;2.90;;
37459;SDS011;23318;50.966;5.284;2022-12-07T14:12:31;10.63;;;3.65;;
37459;SDS011;23318;50.966;5.284;2022-12-07T14:15:00;15.48;;;4.25;;
37459;SDS011;23318;50.966;5.284;2022-12-07T14:17:28;16.42;;;5.72;;
37459;SDS011;23318;50.966;5.284;2022-12-07T14:19:57;13.43;;;5.38;;
37459;SDS011;23318;50.966;5.284;2022-12-07T14:22:35;14.35;;;5.05;;
37459;SDS011;23318;50.966;5.284;2022-12-07T14:27:39;11.48;;;4.53;;
37459;SDS011;23318;50.966;5.284;2022-12-07T14:30:15;14.75;;;4.80;;
37459;SDS011;23318;50.966;5.284;2022-12-07T14:32:42;16.58;;;5.68;;
37459;SDS011;23318;50.966;5.284;2022-12-07T14:35:13;11.70;;;5.32;;
37459;SDS011;23318;50.966;5.284;2022-12-07T14:37:42;11.13;;;4.78;;
37459;SDS011;23318;50.966;5.284;2022-12-07T14:40:12;11.52;;;5.03;;
37459;SDS011;23318;50.966;5.284;2022-12-07T14:42:54;14.43;;;5.38;;
37459;SDS011;23318;50.966;5.284;2022-12-07T14:45:31;11.18;;;5.40;;
37459;SDS011;23318;50.966;5.284;2022-12-07T14:47:57;16.83;;;5.45;;
37459;SDS011;23318;50.966;5.284;2022-12-07T14:50:23;11.02;;;5.45;;
37459;SDS011;23318;50.966;5.284;2022-12-07T14:52:51;15.82;;;6.13;;
37459;SDS011;23318;50.966;5.284;2022-12-07T14:57:49;14.13;;;6.25;;
37459;SDS011;23318;50.966;5.284;2022-12-07T15:00:15;13.15;;;5.78;;
37459;SDS011;23318;50.966;5.284;2022-12-07T15:02:42;19.13;;;5.72;;
37459;SDS011;23318;50.966;5.284;2022-12-07T15:05:09;12.32;;;6.07;;
37459;SDS011;23318;50.966;5.284;2022-12-07T15:07:34;13.23;;;6.43;;
37459;SDS011;23318;50.966;5.284;2022-12-07T15:10:00;11.20;;;5.95;;
37459;SDS011;23318;50.966;5.284;2022-12-07T15:12:26;13.60;;;5.95;;
37459;SDS011;23318;50.966;5.284;2022-12-07T15:14:52;15.90;;;6.10;;
37459;SDS011;23318;50.966;5.284;2022-12-07T15:17:17;14.20;;;5.72;;
37459;SDS011;23318;50.966;5.284;2022-12-07T15:19:43;12.55;;;6.80;;
37459;SDS011;23318;50.966;5.284;2022-12-07T15:22:09;17.25;;;6.68;;
37459;SDS011;23318;50.966;5.284;2022-12-07T15:24:36;17.42;;;8.10;;
37459;SDS011;23318;50.966;5.284;2022-12-07T15:27:02;16.90;;;7.13;;
37459;SDS011;23318;50.966;5.284;2022-12-07T15:29:28;12.85;;;6.18;;
37459;SDS011;23318;50.966;5.284;2022-12-07T15:31:54;14.43;;;6.93;;
37459;SDS011;23318;50.966;5.284;2022-12-07T15:34:20;14.63;;;7.18;;
37459;SDS011;23318;50.966;5.284;2022-12-07T15:36:46;14.52;;;6.65;;
37459;SDS011;23318;50.966;5.284;2022-12-07T15:39:12;14.18;;;6.88;;
37459;SDS011;23318;50.966;5.284;2022-12-07T15:41:37;10.90;;;6.78;;
37459;SDS011;23318;50.966;5.284;2022-12-07T15:44:03;13.68;;;7.22;;
37459;SDS011;23318;50.966;5.284;2022-12-07T15:46:48;6.80;;;4.63;;
37459;SDS011;23318;50.966;5.284;2022-12-07T15:49:17;5.65;;;3.85;;
37459;SDS011;23318;50.966;5.284;2022-12-07T15:51:44;8.05;;;3.85;;
37459;SDS011;23318;50.966;5.284;2022-12-07T15:54:15;5.68;;;2.92;;
37459;SDS011;23318;50.966;5.284;2022-12-07T15:56:59;7.82;;;3.00;;
37459;SDS011;23318;50.966;5.284;2022-12-07T15:59:26;4.72;;;2.63;;
37459;SDS011;23318;50.966;5.284;2022-12-07T16:01:53;5.53;;;2.80;;
37459;SDS011;23318;50.966;5.284;2022-12-07T16:04:18;5.70;;;3.08;;
37459;SDS011;23318;50.966;5.284;2022-12-07T16:06:44;4.72;;;2.88;;
37459;SDS011;23318;50.966;5.284;2022-12-07T16:09:10;6.47;;;2.65;;
37459;SDS011;23318;50.966;5.284;2022-12-07T16:11:35;4.63;;;2.72;;
37459;SDS011;23318;50.966;5.284;2022-12-07T16:14:01;4.05;;;2.25;;
37459;SDS011;23318;50.966;5.284;2022-12-07T16:16:27;4.43;;;2.35;;
37459;SDS011;23318;50.966;5.284;2022-12-07T16:18:53;5.18;;;2.80;;
37459;SDS011;23318;50.966;5.284;2022-12-07T16:21:19;5.53;;;2.85;;
37459;SDS011;23318;50.966;5.284;2022-12-07T16:23:45;5.65;;;2.28;;
37459;SDS011;23318;50.966;5.284;2022-12-07T16:26:12;7.10;;;3.20;;
37459;SDS011;23318;50.966;5.284;2022-12-07T16:28:39;5.25;;;3.10;;
37459;SDS011;23318;50.966;5.284;2022-12-07T16:31:06;4.25;;;3.60;;
37459;SDS011;23318;50.966;5.284;2022-12-07T16:33:35;6.45;;;2.90;;
37459;SDS011;23318;50.966;5.284;2022-12-07T16:36:02;6.35;;;3.05;;
37459;SDS011;23318;50.966;5.284;2022-12-07T16:38:29;8.43;;;3.20;;
37459;SDS011;23318;50.966;5.284;2022-12-07T16:40:55;4.85;;;3.20;;
37459;SDS011;23318;50.966;5.284;2022-12-07T16:43:21;5.57;;;3.00;;
37459;SDS011;23318;50.966;5.284;2022-12-07T16:45:47;8.13;;;3.40;;
37459;SDS011;23318;50.966;5.284;2022-12-07T16:48:13;4.78;;;3.22;;
37459;SDS011;23318;50.966;5.284;2022-12-07T16:50:40;4.85;;;3.38;;
37459;SDS011;23318;50.966;5.284;2022-12-07T16:53:07;8.68;;;3.40;;
37459;SDS011;23318;50.966;5.284;2022-12-07T16:55:39;6.05;;;3.67;;
37459;SDS011;23318;50.966;5.284;2022-12-07T16:58:06;11.05;;;4.13;;
37459;SDS011;23318;50.966;5.284;2022-12-07T17:00:32;9.18;;;3.63;;
37459;SDS011;23318;50.966;5.284;2022-12-07T17:02:58;9.50;;;4.05;;
37459;SDS011;23318;50.966;5.284;2022-12-07T17:05:24;8.43;;;3.78;;
37459;SDS011;23318;50.966;5.284;2022-12-07T17:07:53;8.80;;;4.07;;
37459;SDS011;23318;50.966;5.284;2022-12-07T17:10:19;9.60;;;4.22;;
37459;SDS011;23318;50.966;5.284;2022-12-07T17:12:45;9.52;;;4.13;;
37459;SDS011;23318;50.966;5.284;2022-12-07T17:15:10;10.60;;;4.57;;